Time;durP1;ratioP1;P1;durP2;ratioP2;P2;SDS_P1;SDS_P2;PMS_P1;PMS_P2;Temp;Humidity;BMP_temperature;BMP_pressure;BME280_temperature;BME280_humidity;BME280_pressure;Samples;Min_cycle;Max_cycle;Signal;HPM_P1;HPM_P2
2022/01/19 00:01:12;;;;;;;;;;;5.30;99.90;;;;;;5120971;27;19912;-72
2022/01/19 00:03:38;;;;;;;;;;;5.20;99.90;;;;;;5130574;27;20068;-70
2022/01/19 00:06:04;;;;;;;;;;;5.20;99.90;;;;;;5128177;27;19923;-69
2022/01/19 00:08:29;;;;;;;;;;;5.10;99.90;;;;;;5135879;27;19980;-69
2022/01/19 00:10:55;;;;;;;;;;;5.10;99.90;;;;;;5130138;27;19922;-69
2022/01/19 00:13:21;;;;;;;;;;;5.10;99.90;;;;;;5134839;27;20310;-71
2022/01/19 00:15:51;;;;;;;;;;;5.10;99.90;;;;;;5134437;27;19936;-75
2022/01/19 00:18:18;;;;;;;;;;;5.10;99.90;;;;;;5132374;27;19915;-70
2022/01/19 00:20:44;;;;;;;;;;;5.10;99.90;;;;;;5127815;27;19912;-69
2022/01/19 00:23:10;;;;;;;;;;;5.10;99.90;;;;;;5136269;27;20284;-69
2022/01/19 00:25:37;;;;;;;;;;;5.10;99.90;;;;;;5131167;27;20379;-68
2022/01/19 00:28:02;;;;;;;;;;;5.10;99.90;;;;;;5134285;27;19947;-70
2022/01/19 00:30:28;;;;;;;;;;;5.10;99.90;;;;;;5132208;27;19958;-69
2022/01/19 00:32:54;;;;;;;;;;;5.10;99.90;;;;;;5116224;27;19958;-70
2022/01/19 00:35:20;;;;;;;;;;;5.20;99.90;;;;;;5128223;27;19907;-69
2022/01/19 00:37:45;;;;;;;;;;;5.20;99.90;;;;;;5124280;27;19911;-74
2022/01/19 00:40:14;;;;;;;;;;;5.30;99.90;;;;;;5118997;28;19911;-70
2022/01/19 00:42:40;;;;;;;;;;;5.10;99.90;;;;;;5130718;28;19908;-71
2022/01/19 00:45:06;;;;;;;;;;;5.00;99.90;;;;;;5157525;27;19962;-70
2022/01/19 00:47:32;;;;;;;;;;;4.90;99.90;;;;;;5147349;27;19912;-70
2022/01/19 00:49:57;;;;;;;;;;;4.90;99.90;;;;;;5153642;27;19979;-70
2022/01/19 00:52:23;;;;;;;;;;;4.90;99.90;;;;;;5141890;27;19963;-73
2022/01/19 00:54:48;;;;;;;;;;;5.00;99.90;;;;;;5150192;27;19929;-71
2022/01/19 00:57:14;;;;;;;;;;;5.20;99.90;;;;;;5129432;27;19989;-72
2022/01/19 00:59:40;;;;;;;;;;;5.20;99.90;;;;;;5137872;27;19955;-71
2022/01/19 01:02:05;;;;;;;;;;;5.30;99.90;;;;;;5135338;27;19916;-75
2022/01/19 01:04:34;;;;;;;;;;;5.30;99.90;;;;;;5158124;27;19907;-71
2022/01/19 01:07:00;;;;;;;;;;;5.30;99.90;;;;;;5156701;27;19971;-72
2022/01/19 01:09:26;;;;;;;;;;;5.30;99.90;;;;;;5138293;28;19947;-72
2022/01/19 01:12:09;;;;;;;;;;;5.30;99.90;;;;;;5140660;27;20023;-75
2022/01/19 01:20:06;;;;;;;;;;;5.30;99.90;;;;;;5152676;27;19915;-71
2022/01/19 01:22:31;;;;;;;;;;;5.30;99.90;;;;;;5144492;27;19912;-73
2022/01/19 01:24:57;;;;;;;;;;;5.30;99.90;;;;;;5136974;27;19965;-75
2022/01/19 01:27:22;;;;;;;;;;;5.30;99.90;;;;;;5152438;27;19913;-71
2022/01/19 01:29:48;;;;;;;;;;;5.30;99.90;;;;;;5147361;27;20434;-70
2022/01/19 01:32:14;;;;;;;;;;;5.30;99.90;;;;;;5144460;27;19912;-69
2022/01/19 01:34:39;;;;;;;;;;;5.30;99.90;;;;;;5141792;27;19978;-70
2022/01/19 01:37:05;;;;;;;;;;;5.40;99.90;;;;;;5139788;27;19912;-71
2022/01/19 01:39:30;;;;;;;;;;;5.40;99.90;;;;;;5128488;28;19915;-70
2022/01/19 01:41:56;;;;;;;;;;;5.40;99.90;;;;;;5141453;27;19991;-71
2022/01/19 01:44:22;;;;;;;;;;;5.30;99.90;;;;;;5144754;27;19916;-71
2022/01/19 01:46:52;;;;;;;;;;;5.20;99.90;;;;;;5129375;27;19923;-75
2022/01/19 01:49:29;;;;;;;;;;;5.10;99.90;;;;;;5143045;27;19912;-77
2022/01/19 01:54:40;;;;;;;;;;;5.00;99.90;;;;;;5153143;27;19917;-73
2022/01/19 01:57:06;;;;;;;;;;;4.80;99.90;;;;;;5148643;27;19908;-76
2022/01/19 01:59:33;;;;;;;;;;;4.80;99.90;;;;;;5155973;27;19918;-74
2022/01/19 02:01:58;;;;;;;;;;;4.80;99.90;;;;;;5152193;27;19922;-74
2022/01/19 02:04:25;;;;;;;;;;;5.00;99.90;;;;;;5146286;27;19903;-74
2022/01/19 02:09:37;;;;;;;;;;;5.20;99.90;;;;;;5137472;27;19908;-73
2022/01/19 02:23:06;;;;;;;;;;;4.80;99.90;;;;;;5142153;27;19923;-74
2022/01/19 02:25:38;;;;;;;;;;;4.70;99.90;;;;;;5144594;27;19914;-74
2022/01/19 02:31:36;;;;;;;;;;;4.70;99.90;;;;;;5131286;27;19922;-71
2022/01/19 02:41:37;;;;;;;;;;;4.70;99.90;;;;;;5124913;27;20383;-69
2022/01/19 02:44:03;;;;;;;;;;;4.70;99.90;;;;;;5131248;27;19951;-72
2022/01/19 02:49:14;;;;;;;;;;;4.70;99.90;;;;;;5124422;27;20303;-71
2022/01/19 02:51:40;;;;;;;;;;;4.70;99.90;;;;;;5117970;27;19928;-71
2022/01/19 02:54:10;;;;;;;;;;;4.80;99.90;;;;;;5133615;27;19908;-71
2022/01/19 02:56:38;;;;;;;;;;;4.70;99.90;;;;;;5125054;27;19968;-70
2022/01/19 02:59:18;;;;;;;;;;;4.80;99.90;;;;;;5119655;27;20387;-71
2022/01/19 03:09:41;;;;;;;;;;;4.50;99.90;;;;;;5130281;27;19915;-71
2022/01/19 03:12:07;;;;;;;;;;;4.60;99.90;;;;;;5128288;27;19915;-71
2022/01/19 03:14:33;;;;;;;;;;;4.60;99.90;;;;;;5126709;27;19924;-70
2022/01/19 03:16:58;;;;;;;;;;;4.60;99.90;;;;;;5122093;27;20007;-71
2022/01/19 03:19:26;;;;;;;;;;;4.80;99.90;;;;;;5128256;28;19919;-70
2022/01/19 03:21:52;;;;;;;;;;;5.00;99.90;;;;;;5123575;28;19915;-70
2022/01/19 03:24:18;;;;;;;;;;;5.00;99.90;;;;;;5130485;28;19919;-70
2022/01/19 03:26:44;;;;;;;;;;;4.90;99.90;;;;;;5123251;28;19911;-69
2022/01/19 03:29:09;;;;;;;;;;;4.80;99.90;;;;;;5113553;28;19931;-70
2022/01/19 03:31:35;;;;;;;;;;;4.90;99.90;;;;;;5122574;27;19913;-71
2022/01/19 03:34:01;;;;;;;;;;;4.90;99.90;;;;;;5130808;28;20336;-73
2022/01/19 03:36:27;;;;;;;;;;;5.00;99.90;;;;;;5122231;28;20010;-73
2022/01/19 03:38:53;;;;;;;;;;;5.10;99.90;;;;;;5128523;28;19950;-73
2022/01/19 03:41:18;;;;;;;;;;;5.10;99.90;;;;;;5125818;28;20401;-71
2022/01/19 03:43:44;;;;;;;;;;;5.10;99.90;;;;;;5126987;28;19918;-70
2022/01/19 03:46:14;;;;;;;;;;;4.90;99.90;;;;;;5128261;27;19911;-72
2022/01/19 03:51:15;;;;;;;;;;;4.80;99.90;;;;;;5125742;27;19963;-71
2022/01/19 03:53:41;;;;;;;;;;;4.80;99.90;;;;;;5127700;28;20382;-69
2022/01/19 03:56:07;;;;;;;;;;;4.70;99.90;;;;;;5127235;28;19964;-69
2022/01/19 03:58:32;;;;;;;;;;;4.70;99.90;;;;;;5122860;28;19911;-70
2022/01/19 04:00:59;;;;;;;;;;;4.70;99.90;;;;;;5121946;27;19911;-72
2022/01/19 04:06:20;;;;;;;;;;;4.50;99.90;;;;;;5129010;28;19922;-70
2022/01/19 04:08:45;;;;;;;;;;;4.40;99.90;;;;;;5128271;28;20452;-69
2022/01/19 04:11:13;;;;;;;;;;;4.30;99.90;;;;;;5127158;28;19961;-71
2022/01/19 04:16:22;;;;;;;;;;;4.20;99.90;;;;;;5127519;27;19912;-72
2022/01/19 04:18:48;;;;;;;;;;;4.20;99.90;;;;;;5115047;28;19916;-70
2022/01/19 04:21:14;;;;;;;;;;;4.20;99.90;;;;;;5127727;28;20649;-71
2022/01/19 04:23:40;;;;;;;;;;;4.20;99.90;;;;;;5123516;27;20006;-70
2022/01/19 04:26:06;;;;;;;;;;;4.30;99.90;;;;;;5124728;27;20019;-70
2022/01/19 04:28:32;;;;;;;;;;;4.30;99.90;;;;;;5117608;28;19923;-71
2022/01/19 04:30:58;;;;;;;;;;;4.30;99.90;;;;;;5115662;28;19919;-73
2022/01/19 04:33:26;;;;;;;;;;;4.20;99.90;;;;;;5121781;27;19919;-69
2022/01/19 04:35:54;;;;;;;;;;;4.20;99.90;;;;;;5127608;27;19927;-69
2022/01/19 05:02:54;;;;;;;;;;;4.30;99.90;;;;;;5106163;27;19934;-70
2022/01/19 05:15:42;;;;;;;;;;;4.20;99.90;;;;;;5126546;27;19961;-73
2022/01/19 05:18:08;;;;;;;;;;;4.10;99.90;;;;;;5135963;27;19911;-73
2022/01/19 05:20:34;;;;;;;;;;;4.00;99.90;;;;;;5132278;27;20297;-74
2022/01/19 05:22:59;;;;;;;;;;;3.90;99.90;;;;;;5132102;27;19907;-72
2022/01/19 05:25:25;;;;;;;;;;;3.90;99.90;;;;;;5135639;27;19907;-70
2022/01/19 05:27:51;;;;;;;;;;;4.00;99.90;;;;;;5122461;27;19934;-71
2022/01/19 05:30:17;;;;;;;;;;;4.10;99.90;;;;;;5133510;27;19968;-71
2022/01/19 05:32:44;;;;;;;;;;;4.10;99.90;;;;;;5127715;27;19912;-72
2022/01/19 05:35:09;;;;;;;;;;;4.10;99.90;;;;;;5128132;27;19918;-70
2022/01/19 05:37:36;;;;;;;;;;;4.20;99.90;;;;;;5123053;27;19975;-73
2022/01/19 05:40:10;;;;;;;;;;;4.20;99.90;;;;;;5133820;27;20810;-71
2022/01/19 05:42:35;;;;;;;;;;;4.10;99.90;;;;;;5124970;27;19912;-72
2022/01/19 05:45:01;;;;;;;;;;;4.10;99.90;;;;;;5135504;27;20457;-71
2022/01/19 05:47:26;;;;;;;;;;;4.20;99.90;;;;;;5136911;27;19915;-73
2022/01/19 05:49:52;;;;;;;;;;;4.10;99.90;;;;;;5135169;27;19919;-70
2022/01/19 05:52:19;;;;;;;;;;;4.10;99.90;;;;;;5122984;27;19918;-70
2022/01/19 05:54:45;;;;;;;;;;;4.10;99.90;;;;;;5132236;27;19975;-70
2022/01/19 05:57:10;;;;;;;;;;;4.10;99.90;;;;;;5127749;27;19958;-71
2022/01/19 05:59:36;;;;;;;;;;;4.10;99.90;;;;;;5127762;27;20002;-72
2022/01/19 06:02:02;;;;;;;;;;;4.10;99.90;;;;;;5119644;27;19912;-72
2022/01/19 06:04:27;;;;;;;;;;;4.10;99.90;;;;;;5126773;27;20333;-74
2022/01/19 06:06:56;;;;;;;;;;;4.10;99.90;;;;;;5129509;27;19912;-70
2022/01/19 06:09:34;;;;;;;;;;;4.10;99.90;;;;;;5128308;27;20393;-72
2022/01/19 06:12:04;;;;;;;;;;;4.20;99.90;;;;;;5126549;27;20309;-73
2022/01/19 06:14:29;;;;;;;;;;;4.30;99.90;;;;;;5128860;27;19957;-73
2022/01/19 06:16:55;;;;;;;;;;;4.30;99.90;;;;;;5121070;27;19916;-69
2022/01/19 06:19:21;;;;;;;;;;;4.30;99.90;;;;;;5129651;27;19930;-71
2022/01/19 06:21:46;;;;;;;;;;;4.30;99.90;;;;;;5130447;27;20053;-70
2022/01/19 06:24:12;;;;;;;;;;;4.30;99.90;;;;;;5129883;27;19964;-73
2022/01/19 06:26:40;;;;;;;;;;;4.20;99.90;;;;;;5124351;27;20356;-70
2022/01/19 06:29:06;;;;;;;;;;;4.20;99.90;;;;;;5129154;27;20384;-75
2022/01/19 06:31:31;;;;;;;;;;;4.10;99.90;;;;;;5126977;27;19912;-69
2022/01/19 06:33:57;;;;;;;;;;;4.10;99.90;;;;;;5123995;27;19919;-70
2022/01/19 06:36:22;;;;;;;;;;;4.10;99.90;;;;;;5120121;27;19916;-75
2022/01/19 06:38:48;;;;;;;;;;;4.20;99.90;;;;;;5120111;27;19995;-73
2022/01/19 06:41:14;;;;;;;;;;;4.10;99.90;;;;;;5125477;27;19983;-70
2022/01/19 06:43:39;;;;;;;;;;;4.10;99.90;;;;;;5120401;27;20025;-69
2022/01/19 06:46:05;;;;;;;;;;;4.10;99.90;;;;;;5130754;27;20013;-71
2022/01/19 06:48:31;;;;;;;;;;;4.10;99.90;;;;;;5126848;27;20353;-72
2022/01/19 06:50:56;;;;;;;;;;;4.10;99.90;;;;;;5115540;27;19915;-70
2022/01/19 06:53:22;;;;;;;;;;;4.20;99.90;;;;;;5127590;27;20504;-70
2022/01/19 06:55:47;;;;;;;;;;;4.40;99.90;;;;;;5129767;27;19951;-71
2022/01/19 06:58:13;;;;;;;;;;;4.60;99.90;;;;;;5128169;27;19980;-74
2022/01/19 07:00:39;;;;;;;;;;;4.70;99.90;;;;;;5115494;27;19918;-72
2022/01/19 07:03:05;;;;;;;;;;;4.70;99.90;;;;;;5123156;27;20014;-70
2022/01/19 07:05:30;;;;;;;;;;;4.80;99.90;;;;;;5128083;27;19915;-70
2022/01/19 07:07:57;;;;;;;;;;;4.90;99.90;;;;;;5122042;27;19915;-74
2022/01/19 07:10:23;;;;;;;;;;;5.00;99.90;;;;;;5127703;27;19911;-69
2022/01/19 07:12:49;;;;;;;;;;;5.00;99.90;;;;;;5128780;27;19994;-71
2022/01/19 07:15:15;;;;;;;;;;;5.10;99.90;;;;;;5124554;27;20439;-71
2022/01/19 07:17:41;;;;;;;;;;;5.20;99.90;;;;;;5124061;27;20242;-71
2022/01/19 07:20:07;;;;;;;;;;;5.30;99.90;;;;;;5127241;27;19923;-73
2022/01/19 07:22:32;;;;;;;;;;;5.20;99.90;;;;;;5124040;28;19911;-74
2022/01/19 07:24:59;;;;;;;;;;;5.30;99.90;;;;;;5130565;27;20404;-69
2022/01/19 07:27:25;;;;;;;;;;;5.30;99.90;;;;;;5121016;28;19963;-72
2022/01/19 07:29:51;;;;;;;;;;;5.40;99.90;;;;;;5126211;28;20021;-72
2022/01/19 07:32:17;;;;;;;;;;;5.40;99.90;;;;;;5129482;28;19915;-70
2022/01/19 07:34:43;;;;;;;;;;;5.40;99.90;;;;;;5123058;28;19916;-71
2022/01/19 07:37:08;;;;;;;;;;;5.50;99.90;;;;;;5121202;28;19951;-71
2022/01/19 07:39:34;;;;;;;;;;;5.50;99.90;;;;;;5129017;27;20369;-72
2022/01/19 07:42:00;;;;;;;;;;;5.60;99.90;;;;;;5130043;28;19918;-71
2022/01/19 07:44:25;;;;;;;;;;;5.60;99.90;;;;;;5130460;28;19926;-74
2022/01/19 07:46:51;;;;;;;;;;;5.60;99.90;;;;;;5130231;28;19916;-70
2022/01/19 07:49:17;;;;;;;;;;;5.60;99.90;;;;;;5120166;28;19938;-74
2022/01/19 07:51:43;;;;;;;;;;;5.60;99.90;;;;;;5124853;28;19916;-71
2022/01/19 07:54:08;;;;;;;;;;;5.70;99.90;;;;;;5122298;28;19973;-73
2022/01/19 07:56:34;;;;;;;;;;;5.80;99.90;;;;;;5124841;28;19922;-73
2022/01/19 07:59:00;;;;;;;;;;;5.90;99.90;;;;;;5123057;28;19908;-70
2022/01/19 08:01:30;;;;;;;;;;;5.90;99.90;;;;;;5122193;28;20002;-71
2022/01/19 08:03:56;;;;;;;;;;;5.90;99.90;;;;;;5121964;28;19907;-74
2022/01/19 08:06:21;;;;;;;;;;;6.00;99.90;;;;;;5128617;28;20002;-71
2022/01/19 08:08:47;;;;;;;;;;;6.10;99.90;;;;;;5131703;27;20461;-72
2022/01/19 08:11:13;;;;;;;;;;;6.30;99.90;;;;;;5131088;27;20343;-71
2022/01/19 08:13:38;;;;;;;;;;;6.40;99.90;;;;;;5134213;27;19908;-70
2022/01/19 08:16:04;;;;;;;;;;;6.40;99.90;;;;;;5131878;27;19911;-73
2022/01/19 08:18:29;;;;;;;;;;;6.40;99.90;;;;;;5126586;27;19911;-73
2022/01/19 08:20:56;;;;;;;;;;;6.50;99.90;;;;;;5124477;27;19923;-73
2022/01/19 08:23:21;;;;;;;;;;;6.60;99.90;;;;;;5124649;27;20002;-73
2022/01/19 08:25:47;;;;;;;;;;;6.70;99.90;;;;;;5134264;27;19950;-71
2022/01/19 08:28:12;;;;;;;;;;;6.80;99.90;;;;;;5129249;27;19929;-71
2022/01/19 08:30:38;;;;;;;;;;;6.90;99.90;;;;;;5124005;27;20026;-73
2022/01/19 08:33:04;;;;;;;;;;;6.90;99.90;;;;;;5130279;27;19983;-71
2022/01/19 08:35:29;;;;;;;;;;;6.90;99.90;;;;;;5132623;27;19936;-74
2022/01/19 08:37:55;;;;;;;;;;;7.00;99.90;;;;;;5126788;27;19907;-70
2022/01/19 08:40:26;;;;;;;;;;;7.20;99.90;;;;;;5124645;27;19938;-73
2022/01/19 08:42:52;;;;;;;;;;;7.20;99.90;;;;;;5130292;27;19915;-72
2022/01/19 08:45:18;;;;;;;;;;;7.30;99.90;;;;;;5117166;27;20151;-72
2022/01/19 08:47:43;;;;;;;;;;;7.50;99.90;;;;;;5125293;27;20333;-72
2022/01/19 08:50:10;;;;;;;;;;;7.70;99.90;;;;;;5130237;27;19916;-73
2022/01/19 08:52:36;;;;;;;;;;;7.90;99.90;;;;;;5129002;27;19942;-72
2022/01/19 08:55:03;;;;;;;;;;;8.20;99.90;;;;;;5132701;27;19970;-72
2022/01/19 08:57:28;;;;;;;;;;;8.20;99.90;;;;;;5127366;27;19912;-71
2022/01/19 08:59:54;;;;;;;;;;;8.30;99.90;;;;;;5134152;27;19941;-72
2022/01/19 09:02:20;;;;;;;;;;;8.50;99.90;;;;;;5131559;27;19911;-71
2022/01/19 09:04:46;;;;;;;;;;;8.70;99.90;;;;;;5131144;27;19916;-72
2022/01/19 09:07:11;;;;;;;;;;;8.90;99.90;;;;;;5127764;27;19995;-71
2022/01/19 09:09:37;;;;;;;;;;;9.10;99.90;;;;;;5121151;27;19975;-71
2022/01/19 09:12:03;;;;;;;;;;;9.30;99.90;;;;;;5127340;27;19911;-74
2022/01/19 09:14:30;;;;;;;;;;;9.40;99.90;;;;;;5134092;27;20002;-73
2022/01/19 09:16:56;;;;;;;;;;;9.40;99.90;;;;;;5124210;27;19950;-70
2022/01/19 09:19:21;;;;;;;;;;;9.40;99.90;;;;;;5134376;27;19945;-70
2022/01/19 09:21:48;;;;;;;;;;;9.30;99.90;;;;;;5132553;27;20376;-74
2022/01/19 09:24:17;;;;;;;;;;;9.20;99.90;;;;;;5134331;27;20445;-74
2022/01/19 09:26:45;;;;;;;;;;;9.10;99.90;;;;;;5131315;27;19938;-70
2022/01/19 09:29:32;;;;;;;;;;;9.00;99.90;;;;;;5128162;27;20057;-73
2022/01/19 09:32:01;;;;;;;;;;;8.90;99.90;;;;;;5118745;27;19911;-72
2022/01/19 09:34:27;;;;;;;;;;;8.70;99.90;;;;;;5134899;27;19911;-67
2022/01/19 09:36:53;;;;;;;;;;;8.70;99.90;;;;;;5129539;27;19916;-69
2022/01/19 09:39:20;;;;;;;;;;;8.70;99.90;;;;;;5130773;27;20249;-69
2022/01/19 09:41:46;;;;;;;;;;;8.60;99.90;;;;;;5118660;27;19919;-67
2022/01/19 09:44:12;;;;;;;;;;;8.60;99.90;;;;;;5121481;27;19911;-68
2022/01/19 09:46:38;;;;;;;;;;;8.60;99.90;;;;;;5122461;27;20369;-69
2022/01/19 09:49:07;;;;;;;;;;;8.90;99.90;;;;;;5129100;27;19922;-68
2022/01/19 09:51:33;;;;;;;;;;;9.10;99.90;;;;;;5125675;27;19922;-69
2022/01/19 09:53:59;;;;;;;;;;;9.30;99.90;;;;;;5132506;27;19907;-68
2022/01/19 09:56:24;;;;;;;;;;;9.60;99.90;;;;;;5130092;27;19916;-67
2022/01/19 09:58:50;;;;;;;;;;;9.80;99.90;;;;;;5130778;27;19958;-67
2022/01/19 10:01:16;;;;;;;;;;;10.10;99.90;;;;;;5123274;27;20356;-70
2022/01/19 10:03:43;;;;;;;;;;;10.50;99.90;;;;;;5131981;27;20626;-69
2022/01/19 10:06:10;;;;;;;;;;;10.70;99.90;;;;;;5129220;27;19915;-69
2022/01/19 10:08:37;;;;;;;;;;;10.70;99.90;;;;;;5127488;27;20293;-68
2022/01/19 10:11:10;;;;;;;;;;;10.60;99.90;;;;;;5130726;27;20392;-68
2022/01/19 10:19:12;;;;;;;;;;;10.60;99.90;;;;;;5125386;27;19988;-68
2022/01/19 10:21:54;;;;;;;;;;;10.40;99.90;;;;;;5130897;27;19951;-68
2022/01/19 10:24:31;;;;;;;;;;;10.30;99.90;;;;;;5119607;27;19923;-68
2022/01/19 10:27:15;;;;;;;;;;;10.20;99.90;;;;;;5130862;27;20351;-69
2022/01/19 10:29:41;;;;;;;;;;;9.90;99.90;;;;;;5125622;27;19968;-68
2022/01/19 10:32:07;;;;;;;;;;;9.70;99.90;;;;;;5114358;27;19912;-68
2022/01/19 10:34:33;;;;;;;;;;;9.60;99.90;;;;;;5111961;27;19915;-68
2022/01/19 10:37:02;;;;;;;;;;;9.60;99.90;;;;;;5120939;27;20011;-68
2022/01/19 10:39:39;;;;;;;;;;;9.60;99.90;;;;;;5127668;27;19908;-69
2022/01/19 10:42:09;;;;;;;;;;;9.60;99.90;;;;;;5126894;27;19911;-69
2022/01/19 10:44:54;;;;;;;;;;;9.50;99.90;;;;;;5126836;27;19914;-68
2022/01/19 10:47:39;;;;;;;;;;;9.50;99.90;;;;;;5127598;27;19912;-68
2022/01/19 10:50:05;;;;;;;;;;;9.40;99.90;;;;;;5126879;27;19915;-69
2022/01/19 10:52:36;;;;;;;;;;;9.30;99.90;;;;;;5120699;27;19908;-61
2022/01/19 10:55:04;;;;;;;;;;;9.40;99.90;;;;;;5127514;27;20285;-62
2022/01/19 10:57:30;;;;;;;;;;;9.50;99.90;;;;;;5122611;27;20415;-60
2022/01/19 11:00:12;;;;;;;;;;;9.50;99.90;;;;;;5124686;27;19915;-60
2022/01/19 11:02:38;;;;;;;;;;;9.50;99.90;;;;;;5127054;27;20007;-60
2022/01/19 11:05:04;;;;;;;;;;;9.60;99.90;;;;;;5128177;27;19976;-60
2022/01/19 11:07:30;;;;;;;;;;;9.70;99.90;;;;;;5123872;27;19926;-68
2022/01/19 11:10:09;;;;;;;;;;;9.90;99.90;;;;;;5126944;27;19916;-68
2022/01/19 11:12:44;;;;;;;;;;;10.00;99.90;;;;;;5119559;27;19911;-67
2022/01/19 11:15:10;;;;;;;;;;;10.10;99.90;;;;;;5124456;27;19912;-69
2022/01/19 11:17:36;;;;;;;;;;;10.20;99.90;;;;;;5122649;27;20050;-68
2022/01/19 11:20:02;;;;;;;;;;;10.20;99.90;;;;;;5130416;27;19911;-67
2022/01/19 11:22:34;;;;;;;;;;;10.20;99.90;;;;;;5128746;27;19907;-68
2022/01/19 11:25:09;;;;;;;;;;;10.30;99.90;;;;;;5124615;28;19918;-67
2022/01/19 11:27:43;;;;;;;;;;;10.30;99.90;;;;;;5121767;27;19942;-69
2022/01/19 11:30:09;;;;;;;;;;;10.30;99.90;;;;;;5131433;27;20405;-67
2022/01/19 11:32:34;;;;;;;;;;;10.30;99.90;;;;;;5127642;27;19951;-67
2022/01/19 11:35:02;;;;;;;;;;;10.10;99.90;;;;;;5125319;27;19961;-68
2022/01/19 11:37:40;;;;;;;;;;;10.10;99.90;;;;;;5115165;27;19912;-67
2022/01/19 11:40:13;;;;;;;;;;;10.10;99.90;;;;;;5128230;28;19990;-67
2022/01/19 11:42:39;;;;;;;;;;;10.10;99.90;;;;;;5121236;28;19922;-67
2022/01/19 11:45:10;;;;;;;;;;;10.10;99.90;;;;;;5133570;27;19907;-68
2022/01/19 11:47:38;;;;;;;;;;;10.10;99.90;;;;;;5127921;27;19926;-67
2022/01/19 11:50:05;;;;;;;;;;;10.00;99.90;;;;;;5129185;27;19919;-68
2022/01/19 11:52:38;;;;;;;;;;;10.00;99.90;;;;;;5118566;27;19912;-69
2022/01/19 11:55:17;;;;;;;;;;;10.10;99.90;;;;;;5134417;27;19970;-68
2022/01/19 11:57:46;;;;;;;;;;;10.10;99.90;;;;;;5125571;27;19911;-68
2022/01/19 12:00:17;;;;;;;;;;;10.10;99.90;;;;;;5126754;27;19919;-69
2022/01/19 12:02:52;;;;;;;;;;;10.10;99.90;;;;;;5115604;27;19924;-68
2022/01/19 12:05:26;;;;;;;;;;;10.10;99.90;;;;;;5134598;27;19919;-68
2022/01/19 12:07:57;;;;;;;;;;;10.10;99.90;;;;;;5133835;27;19911;-68
2022/01/19 12:10:32;;;;;;;;;;;10.20;99.90;;;;;;5132383;27;19937;-66
2022/01/19 12:13:25;;;;;;;;;;;10.20;99.90;;;;;;5133789;27;20392;-66
2022/01/19 12:16:07;;;;;;;;;;;10.20;99.90;;;;;;5127444;27;19912;-67
2022/01/19 12:18:52;;;;;;;;;;;10.20;99.90;;;;;;5131419;27;20416;-68
2022/01/19 12:21:36;;;;;;;;;;;10.30;99.90;;;;;;5138671;27;19907;-67
2022/01/19 12:24:37;;;;;;;;;;;10.20;99.90;;;;;;5129044;27;19918;-68
2022/01/19 12:27:14;;;;;;;;;;;10.20;99.90;;;;;;5110132;27;20361;-68
2022/01/19 12:29:39;;;;;;;;;;;10.20;99.90;;;;;;5133985;27;19915;-68
2022/01/19 12:32:05;;;;;;;;;;;10.20;99.90;;;;;;5135590;27;20011;-67
2022/01/19 12:34:40;;;;;;;;;;;10.10;99.90;;;;;;5124957;27;19919;-68
2022/01/19 12:37:08;;;;;;;;;;;10.00;99.90;;;;;;5132137;27;19914;-70
2022/01/19 12:39:35;;;;;;;;;;;10.00;99.90;;;;;;5135967;27;19918;-69
2022/01/19 12:42:17;;;;;;;;;;;10.00;99.90;;;;;;5127175;27;19958;-69
2022/01/19 12:44:45;;;;;;;;;;;10.00;99.90;;;;;;5121002;27;19925;-69
2022/01/19 12:47:27;;;;;;;;;;;10.00;99.90;;;;;;5126302;27;19958;-69
2022/01/19 12:49:56;;;;;;;;;;;10.00;99.90;;;;;;5132604;27;19927;-67
2022/01/19 12:52:36;;;;;;;;;;;9.90;99.90;;;;;;5126191;27;19913;-68
2022/01/19 12:55:16;;;;;;;;;;;9.90;99.90;;;;;;5125890;27;20513;-67
2022/01/19 12:57:42;;;;;;;;;;;9.80;99.90;;;;;;5128014;27;19915;-67
2022/01/19 13:00:10;;;;;;;;;;;9.80;99.90;;;;;;5134438;27;19961;-68
2022/01/19 13:02:36;;;;;;;;;;;9.80;99.90;;;;;;5123559;27;19920;-67
2022/01/19 13:05:09;;;;;;;;;;;9.80;99.90;;;;;;5121544;27;19939;-67
2022/01/19 13:07:42;;;;;;;;;;;9.80;99.90;;;;;;5123834;27;19923;-68
2022/01/19 13:10:34;;;;;;;;;;;9.70;99.90;;;;;;5125543;27;19923;-68
2022/01/19 13:13:07;;;;;;;;;;;9.80;99.90;;;;;;5128695;27;19911;-68
2022/01/19 13:15:47;;;;;;;;;;;9.70;99.90;;;;;;5123626;27;20319;-68
2022/01/19 13:18:32;;;;;;;;;;;9.70;99.90;;;;;;5127538;27;19919;-69
2022/01/19 13:21:03;;;;;;;;;;;9.80;99.90;;;;;;5128849;27;20295;-68
2022/01/19 13:23:29;;;;;;;;;;;9.90;99.90;;;;;;5122773;27;19960;-68
2022/01/19 13:25:55;;;;;;;;;;;9.80;99.90;;;;;;5129350;27;19995;-68
2022/01/19 13:28:25;;;;;;;;;;;9.90;99.90;;;;;;5128694;27;19929;-68
2022/01/19 13:30:57;;;;;;;;;;;9.80;99.90;;;;;;5122705;27;19956;-67
2022/01/19 13:33:36;;;;;;;;;;;9.90;99.90;;;;;;5132431;27;19918;-68
2022/01/19 13:36:18;;;;;;;;;;;9.70;99.90;;;;;;5130270;27;19918;-68
2022/01/19 13:38:57;;;;;;;;;;;9.70;99.90;;;;;;5123823;27;19918;-69
2022/01/19 13:41:33;;;;;;;;;;;9.60;99.90;;;;;;5126178;27;19951;-69
2022/01/19 13:44:08;;;;;;;;;;;9.60;99.90;;;;;;5127677;27;19917;-66
2022/01/19 13:46:40;;;;;;;;;;;9.50;99.90;;;;;;5130836;27;19922;-69
2022/01/19 13:49:10;;;;;;;;;;;9.50;99.90;;;;;;5128730;27;19923;-68
2022/01/19 13:51:45;;;;;;;;;;;9.50;99.90;;;;;;5133688;27;19961;-68
2022/01/19 13:54:17;;;;;;;;;;;9.60;99.90;;;;;;5129458;27;19912;-67
2022/01/19 13:56:49;;;;;;;;;;;9.60;99.90;;;;;;5114143;27;19911;-68
2022/01/19 13:59:21;;;;;;;;;;;9.60;99.90;;;;;;5126809;27;19912;-67
2022/01/19 14:01:57;;;;;;;;;;;9.70;99.90;;;;;;5121728;27;19958;-67
2022/01/19 14:04:24;;;;;;;;;;;9.60;99.90;;;;;;5122411;27;19912;-68
2022/01/19 14:06:50;;;;;;;;;;;9.60;99.90;;;;;;5129713;27;19923;-68
2022/01/19 14:09:15;;;;;;;;;;;9.60;99.90;;;;;;5131438;27;19915;-68
2022/01/19 14:11:47;;;;;;;;;;;9.50;99.90;;;;;;5123902;27;20217;-68
2022/01/19 14:14:31;;;;;;;;;;;9.50;99.90;;;;;;5123196;27;19912;-68
2022/01/19 14:16:57;;;;;;;;;;;9.50;99.90;;;;;;5133654;27;20322;-69
2022/01/19 14:19:24;;;;;;;;;;;9.50;99.90;;;;;;5123538;27;19912;-68
2022/01/19 14:22:07;;;;;;;;;;;9.50;99.90;;;;;;5127413;27;19912;-68
2022/01/19 14:24:42;;;;;;;;;;;9.40;99.90;;;;;;5125439;27;19923;-69
2022/01/19 14:27:12;;;;;;;;;;;9.40;99.90;;;;;;5124304;27;19912;-69
2022/01/19 14:29:56;;;;;;;;;;;9.30;99.90;;;;;;5127368;27;19919;-67
2022/01/19 14:32:34;;;;;;;;;;;9.20;99.90;;;;;;5127815;27;19912;-69
2022/01/19 14:35:00;;;;;;;;;;;9.30;99.90;;;;;;5125689;27;19918;-68
2022/01/19 14:37:26;;;;;;;;;;;9.30;99.90;;;;;;5125535;27;19911;-67
2022/01/19 14:39:54;;;;;;;;;;;9.20;99.90;;;;;;5130000;27;19911;-68
2022/01/19 14:42:30;;;;;;;;;;;9.20;99.90;;;;;;5124271;27;20043;-68
2022/01/19 14:45:19;;;;;;;;;;;9.30;99.90;;;;;;5128406;27;19919;-68
2022/01/19 14:47:45;;;;;;;;;;;9.30;99.90;;;;;;5119420;27;19919;-67
2022/01/19 14:50:17;;;;;;;;;;;9.30;99.90;;;;;;5131046;27;19935;-69
2022/01/19 14:52:42;;;;;;;;;;;9.40;99.90;;;;;;5126253;27;20036;-68
2022/01/19 14:55:08;;;;;;;;;;;9.40;99.90;;;;;;5130464;27;19954;-68
2022/01/19 14:57:33;;;;;;;;;;;9.40;99.90;;;;;;5126530;27;19938;-68
2022/01/19 15:00:00;;;;;;;;;;;9.50;99.90;;;;;;5125137;27;20039;-67
2022/01/19 15:02:26;;;;;;;;;;;9.40;99.90;;;;;;5123887;27;19918;-68
2022/01/19 15:04:51;;;;;;;;;;;9.40;99.90;;;;;;5127390;27;19920;-67
2022/01/19 15:07:17;;;;;;;;;;;9.40;99.90;;;;;;5128395;27;19946;-68
2022/01/19 15:09:43;;;;;;;;;;;9.40;99.90;;;;;;5124993;27;20360;-68
2022/01/19 15:12:09;;;;;;;;;;;9.40;99.90;;;;;;5128955;27;19911;-66
2022/01/19 15:14:36;;;;;;;;;;;9.40;99.90;;;;;;5125871;27;19915;-67
2022/01/19 15:17:02;;;;;;;;;;;9.30;99.90;;;;;;5130597;27;20410;-67
2022/01/19 15:19:27;;;;;;;;;;;9.30;99.90;;;;;;5128942;27;19915;-66
2022/01/19 15:21:53;;;;;;;;;;;9.20;99.90;;;;;;5123866;27;20036;-68
2022/01/19 15:24:18;;;;;;;;;;;9.20;99.90;;;;;;5127436;27;19915;-67
2022/01/19 15:26:45;;;;;;;;;;;9.10;99.90;;;;;;5124559;28;19911;-68
2022/01/19 15:29:12;;;;;;;;;;;9.10;99.90;;;;;;5121404;28;19922;-66
2022/01/19 15:31:37;;;;;;;;;;;9.10;99.90;;;;;;5126043;28;19911;-67
2022/01/19 15:34:03;;;;;;;;;;;9.00;99.90;;;;;;5129183;28;20297;-65
2022/01/19 15:36:29;;;;;;;;;;;9.00;99.90;;;;;;5121583;27;19911;-66
2022/01/19 15:38:55;;;;;;;;;;;8.90;99.90;;;;;;5125076;28;19915;-67
2022/01/19 15:41:20;;;;;;;;;;;8.80;99.90;;;;;;5126253;28;19920;-66
2022/01/19 15:43:46;;;;;;;;;;;8.80;99.90;;;;;;5119165;28;19911;-66
2022/01/19 15:46:12;;;;;;;;;;;8.70;99.90;;;;;;5123916;27;19912;-66
2022/01/19 15:48:38;;;;;;;;;;;8.60;99.90;;;;;;5128192;28;20495;-65
2022/01/19 15:51:04;;;;;;;;;;;8.60;99.90;;;;;;5123221;27;20002;-66
2022/01/19 15:53:31;;;;;;;;;;;8.60;99.90;;;;;;5126254;28;20384;-67
2022/01/19 15:55:59;;;;;;;;;;;8.60;99.90;;;;;;5125631;27;19923;-66
2022/01/19 15:58:26;;;;;;;;;;;8.50;99.90;;;;;;5126401;27;20010;-67
2022/01/19 16:00:53;;;;;;;;;;;8.40;99.90;;;;;;5130296;28;19915;-65
2022/01/19 16:03:19;;;;;;;;;;;8.40;99.90;;;;;;5121960;27;19999;-66
2022/01/19 16:05:45;;;;;;;;;;;8.30;99.90;;;;;;5126920;28;19958;-67
2022/01/19 16:08:11;;;;;;;;;;;8.30;99.90;;;;;;5124976;27;19911;-67